Time;durP1;ratioP1;P1;durP2;ratioP2;P2;SDS_P1;SDS_P2;PMS_P1;PMS_P2;Temp;Humidity;BMP_temperature;BMP_pressure;BME280_temperature;BME280_humidity;BME280_pressure;Samples;Min_cycle;Max_cycle;Signal;HPM_P1;HPM_P2
2023/07/09 00:02:18;;;;;;;;;;;;;;;28.04;49.41;98227.50;5094123;28;19924;-74
2023/07/09 00:04:45;;;;;;;;;;;;;;;28.01;49.57;98237.25;5094101;28;19950;-74
2023/07/09 00:07:16;;;;;;;;;;;;;;;27.98;49.80;98234.47;5094244;28;19924;-75
2023/07/09 00:09:42;;;;;;;;;;;;;;;28.01;49.52;98248.22;5094034;28;19947;-75
2023/07/09 00:12:12;;;;;;;;;;;;;;;27.96;49.61;98242.25;5094119;28;19924;-74
2023/07/09 00:14:38;;;;;;;;;;;;;;;27.91;49.65;98251.63;5093776;28;20519;-74
2023/07/09 00:17:08;;;;;;;;;;;;;;;27.92;49.72;98257.88;5094329;28;19956;-74
2023/07/09 00:19:35;;;;;;;;;;;;;;;27.97;49.88;98252.88;5090976;28;19958;-74
2023/07/09 00:22:02;;;;;;;;;;;;;;;27.98;49.80;98256.44;5099993;28;19940;-74
2023/07/09 00:24:28;;;;;;;;;;;;;;;27.96;49.64;98255.97;5091033;28;19946;-74
2023/07/09 00:26:55;;;;;;;;;;;;;;;27.95;49.65;98262.63;5095023;28;19932;-74
2023/07/09 00:29:21;;;;;;;;;;;;;;;27.93;49.94;98253.97;5093308;28;19925;-74
2023/07/09 00:31:47;;;;;;;;;;;;;;;27.89;50.03;98253.91;5093462;28;20020;-74
2023/07/09 00:34:17;;;;;;;;;;;;;;;27.80;50.51;98256.94;5093522;28;19924;-74
2023/07/09 00:36:45;;;;;;;;;;;;;;;27.83;50.71;98258.94;5087320;28;19924;-74
2023/07/09 00:39:15;;;;;;;;;;;;;;;27.84;50.74;98249.53;5090492;28;19972;-75
2023/07/09 00:41:42;;;;;;;;;;;;;;;27.85;50.73;98253.84;5093320;28;19936;-75
2023/07/09 00:44:24;;;;;;;;;;;;;;;27.78;50.93;98258.47;5093349;28;19950;-75
2023/07/09 00:47:09;;;;;;;;;;;;;;;27.75;50.95;98265.47;5093460;28;20394;-76
2023/07/09 00:49:41;;;;;;;;;;;;;;;27.70;51.08;98256.72;5085184;28;20008;-75
2023/07/09 00:52:19;;;;;;;;;;;;;;;27.69;51.23;98255.97;5090044;28;19983;-75
2023/07/09 00:54:46;;;;;;;;;;;;;;;27.67;51.41;98258.25;5093250;28;19940;-75
2023/07/09 00:57:17;;;;;;;;;;;;;;;27.67;51.53;98262.97;5093206;28;19928;-75
2023/07/09 00:59:45;;;;;;;;;;;;;;;27.59;51.89;98264.81;5093054;28;20037;-75
2023/07/09 01:02:11;;;;;;;;;;;;;;;27.55;51.82;98261.19;5092558;28;19924;-75
2023/07/09 01:04:39;;;;;;;;;;;;;;;27.48;52.11;98257.56;5092554;28;20091;-75
2023/07/09 01:07:05;;;;;;;;;;;;;;;27.56;51.91;98262.78;5093057;28;19975;-75
2023/07/09 01:09:35;;;;;;;;;;;;;;;27.43;52.23;98275.09;5092762;28;19980;-75
2023/07/09 01:12:04;;;;;;;;;;;;;;;27.46;52.06;98271.63;5083261;28;19924;-75
2023/07/09 01:14:31;;;;;;;;;;;;;;;27.51;51.88;98276.03;5092791;28;19925;-76
2023/07/09 01:17:00;;;;;;;;;;;;;;;27.49;51.96;98283.81;5092845;28;20027;-75
2023/07/09 01:19:28;;;;;;;;;;;;;;;27.48;51.86;98276.75;5092699;28;20508;-75
2023/07/09 01:21:58;;;;;;;;;;;;;;;27.46;51.47;98281.81;5092778;28;19971;-75
2023/07/09 01:24:44;;;;;;;;;;;;;;;27.40;51.53;98281.28;5092472;28;19929;-75
2023/07/09 01:27:10;;;;;;;;;;;;;;;27.22;52.10;98275.47;5092487;28;19973;-75
2023/07/09 01:29:37;;;;;;;;;;;;;;;26.88;52.88;98281.84;5092613;28;19925;-75
2023/07/09 01:32:04;;;;;;;;;;;;;;;26.75;53.35;98283.91;5092409;28;19951;-75
2023/07/09 01:34:31;;;;;;;;;;;;;;;26.55;53.87;98285.06;5092232;28;19924;-75
2023/07/09 01:36:59;;;;;;;;;;;;;;;26.96;53.17;98277.28;5092514;28;19936;-75
2023/07/09 01:39:28;;;;;;;;;;;;;;;27.06;52.97;98285.72;5092338;28;19924;-75
2023/07/09 01:41:54;;;;;;;;;;;;;;;27.12;53.23;98280.75;5092380;28;19928;-75
2023/07/09 01:44:21;;;;;;;;;;;;;;;27.19;53.13;98278.94;5092111;28;19935;-75
2023/07/09 01:46:47;;;;;;;;;;;;;;;27.19;53.01;98280.88;5092134;28;19932;-76
2023/07/09 01:49:14;;;;;;;;;;;;;;;27.18;52.80;98282.84;5091836;28;19926;-75
2023/07/09 01:51:41;;;;;;;;;;;;;;;27.17;53.01;98285.94;5091961;28;19924;-75
2023/07/09 01:54:09;;;;;;;;;;;;;;;27.12;52.98;98286.22;5092218;28;19992;-75
2023/07/09 01:56:38;;;;;;;;;;;;;;;26.93;53.14;98298.00;5092116;28;20246;-75
2023/07/09 01:59:04;;;;;;;;;;;;;;;27.00;53.25;98295.41;5092007;28;19925;-75
2023/07/09 02:01:33;;;;;;;;;;;;;;;26.93;53.36;98299.94;5082609;28;20340;-75
2023/07/09 02:03:59;;;;;;;;;;;;;;;26.89;53.56;98299.09;5094066;28;19960;-75
2023/07/09 02:06:26;;;;;;;;;;;;;;;26.65;53.66;98298.16;5093399;28;19932;-75
2023/07/09 02:08:52;;;;;;;;;;;;;;;26.19;54.65;98304.56;5093058;28;19964;-75
2023/07/09 02:11:20;;;;;;;;;;;;;;;26.36;54.78;98298.69;5092874;28;19924;-75
2023/07/09 02:13:46;;;;;;;;;;;;;;;26.43;54.30;98307.06;5082503;28;19936;-75
2023/07/09 02:16:13;;;;;;;;;;;;;;;26.41;54.47;98306.63;5091838;28;19925;-75
2023/07/09 02:18:39;;;;;;;;;;;;;;;26.59;54.14;98307.81;5091593;28;19991;-75
2023/07/09 02:21:05;;;;;;;;;;;;;;;26.75;53.64;98297.59;5091613;28;19936;-75
2023/07/09 02:23:32;;;;;;;;;;;;;;;26.94;52.91;98296.06;5082000;28;20020;-75
2023/07/09 02:25:58;;;;;;;;;;;;;;;26.92;53.32;98299.16;5082612;28;19935;-75
2023/07/09 02:28:26;;;;;;;;;;;;;;;26.96;53.19;98305.50;5092012;28;19924;-75
2023/07/09 02:30:52;;;;;;;;;;;;;;;26.99;52.57;98303.97;5091995;28;19925;-75
2023/07/09 02:33:20;;;;;;;;;;;;;;;26.92;52.55;98304.66;5082067;28;19929;-75
2023/07/09 02:35:46;;;;;;;;;;;;;;;26.91;52.60;98311.28;5091178;28;20015;-75
2023/07/09 02:38:13;;;;;;;;;;;;;;;26.91;52.58;98314.00;5081657;28;19959;-75
2023/07/09 02:40:39;;;;;;;;;;;;;;;26.90;52.81;98315.16;5090991;28;19995;-75
2023/07/09 02:43:06;;;;;;;;;;;;;;;26.92;52.84;98317.56;5091008;28;19924;-75
2023/07/09 02:45:34;;;;;;;;;;;;;;;26.87;52.60;98312.34;5081408;28;19932;-75
2023/07/09 02:48:00;;;;;;;;;;;;;;;26.76;52.51;98317.59;5090968;28;19925;-75
2023/07/09 02:50:26;;;;;;;;;;;;;;;26.80;52.51;98321.22;5090745;28;19960;-75
2023/07/09 02:52:53;;;;;;;;;;;;;;;26.74;52.38;98319.88;5090851;28;19963;-75
2023/07/09 02:55:19;;;;;;;;;;;;;;;26.70;52.28;98325.31;5090687;28;19928;-74
2023/07/09 02:57:45;;;;;;;;;;;;;;;26.60;52.48;98320.38;5081881;28;19924;-74
2023/07/09 03:00:12;;;;;;;;;;;;;;;26.60;52.51;98327.78;5090782;28;19986;-75
2023/07/09 03:02:40;;;;;;;;;;;;;;;26.57;52.36;98332.03;5090976;28;19963;-75
2023/07/09 03:05:07;;;;;;;;;;;;;;;26.55;52.63;98326.13;5090618;28;19936;-75
2023/07/09 03:07:33;;;;;;;;;;;;;;;26.46;52.81;98333.72;5082531;28;19955;-75
2023/07/09 03:09:59;;;;;;;;;;;;;;;26.54;52.77;98329.22;5090527;28;19932;-75
2023/07/09 03:12:26;;;;;;;;;;;;;;;26.48;52.84;98331.44;5090502;28;19980;-75
2023/07/09 03:14:52;;;;;;;;;;;;;;;26.47;52.90;98327.13;5090582;28;19943;-75
2023/07/09 03:17:18;;;;;;;;;;;;;;;26.41;53.15;98334.03;5090414;28;19928;-75
2023/07/09 03:19:46;;;;;;;;;;;;;;;26.42;52.99;98334.81;5090395;28;19966;-75
2023/07/09 03:22:12;;;;;;;;;;;;;;;26.39;52.96;98343.75;5090418;28;19924;-75
2023/07/09 03:24:39;;;;;;;;;;;;;;;26.40;52.94;98334.38;5090426;28;19928;-75
2023/07/09 03:27:06;;;;;;;;;;;;;;;26.49;53.06;98341.22;5089884;28;19924;-75
2023/07/09 03:29:32;;;;;;;;;;;;;;;26.38;52.95;98339.41;5090113;28;19971;-75
2023/07/09 03:31:58;;;;;;;;;;;;;;;26.33;53.14;98335.03;5090430;28;19929;-75
2023/07/09 03:34:25;;;;;;;;;;;;;;;26.39;53.09;98335.53;5090472;28;19967;-74
2023/07/09 03:36:52;;;;;;;;;;;;;;;26.44;53.12;98338.00;5090405;28;19925;-74
2023/07/09 03:39:19;;;;;;;;;;;;;;;26.51;52.45;98340.91;5090215;28;19964;-74
2023/07/09 03:41:45;;;;;;;;;;;;;;;26.46;52.76;98347.44;5090174;28;19967;-74
2023/07/09 03:44:12;;;;;;;;;;;;;;;26.36;52.88;98352.69;5090151;28;19947;-74
2023/07/09 03:46:39;;;;;;;;;;;;;;;26.39;53.07;98357.44;5084563;28;19928;-74
2023/07/09 03:49:05;;;;;;;;;;;;;;;26.37;52.91;98357.78;5086290;28;19924;-74
2023/07/09 03:51:31;;;;;;;;;;;;;;;26.26;53.29;98356.75;5089955;28;19959;-74
2023/07/09 03:53:59;;;;;;;;;;;;;;;26.32;53.34;98349.06;5089760;28;19924;-74
2023/07/09 03:56:25;;;;;;;;;;;;;;;26.35;53.36;98357.34;5090046;28;19984;-73
2023/07/09 03:58:52;;;;;;;;;;;;;;;26.40;53.27;98354.34;5082467;28;19924;-74
2023/07/09 04:01:18;;;;;;;;;;;;;;;26.45;53.36;98359.56;5088112;28;19956;-73
2023/07/09 04:03:45;;;;;;;;;;;;;;;26.39;53.14;98358.25;5089804;28;19959;-73
2023/07/09 04:06:11;;;;;;;;;;;;;;;26.39;52.92;98360.97;5089915;28;20421;-73
2023/07/09 04:08:37;;;;;;;;;;;;;;;26.39;53.51;98366.47;5089767;28;19952;-73
2023/07/09 04:11:05;;;;;;;;;;;;;;;26.35;53.36;98362.03;5089929;28;19935;-73
2023/07/09 04:13:32;;;;;;;;;;;;;;;26.29;54.18;98359.56;5089825;28;19925;-74
2023/07/09 04:15:59;;;;;;;;;;;;;;;26.32;54.14;98360.81;5088574;28;19964;-74
2023/07/09 04:18:25;;;;;;;;;;;;;;;26.29;54.51;98358.78;5089926;28;19962;-74
2023/07/09 04:20:52;;;;;;;;;;;;;;;26.03;55.42;98372.16;5088446;28;19967;-74
2023/07/09 04:23:19;;;;;;;;;;;;;;;26.06;54.82;98361.31;5089556;28;20212;-74
2023/07/09 04:25:45;;;;;;;;;;;;;;;26.13;54.88;98364.22;5089804;28;20583;-74
2023/07/09 04:28:13;;;;;;;;;;;;;;;26.10;55.24;98369.59;5089526;28;19924;-74
2023/07/09 04:30:39;;;;;;;;;;;;;;;26.17;54.94;98367.88;5089759;28;19935;-74
2023/07/09 04:33:06;;;;;;;;;;;;;;;26.13;55.35;98366.16;5089942;28;19934;-74
2023/07/09 04:35:32;;;;;;;;;;;;;;;26.16;55.22;98368.22;5089981;28;19925;-75
2023/07/09 04:37:58;;;;;;;;;;;;;;;26.16;55.31;98365.50;5090242;28;19959;-74
2023/07/09 04:40:25;;;;;;;;;;;;;;;26.14;55.58;98365.03;5093083;28;19955;-74
2023/07/09 04:42:51;;;;;;;;;;;;;;;26.08;56.13;98369.97;5093041;28;19935;-74
2023/07/09 04:45:19;;;;;;;;;;;;;;;26.07;55.97;98373.84;5093207;28;19947;-74
2023/07/09 04:47:45;;;;;;;;;;;;;;;26.01;56.36;98375.25;5093018;28;19935;-74
2023/07/09 04:50:13;;;;;;;;;;;;;;;26.04;55.94;98376.50;5092957;28;19928;-74
2023/07/09 04:52:39;;;;;;;;;;;;;;;26.00;55.95;98370.13;5093433;28;20317;-74
2023/07/09 04:55:07;;;;;;;;;;;;;;;25.97;55.98;98374.38;5093340;28;19984;-74
2023/07/09 04:57:34;;;;;;;;;;;;;;;26.05;55.65;98380.84;5086092;28;19925;-74
2023/07/09 05:00:00;;;;;;;;;;;;;;;26.05;56.16;98389.03;5094057;28;19987;-74
2023/07/09 05:02:28;;;;;;;;;;;;;;;26.06;56.08;98379.66;5093423;28;19964;-73
2023/07/09 05:04:54;;;;;;;;;;;;;;;26.04;55.59;98374.56;5093389;28;20027;-73
2023/07/09 05:07:20;;;;;;;;;;;;;;;25.93;56.63;98380.91;5093068;28;19993;-74
2023/07/09 05:09:47;;;;;;;;;;;;;;;25.84;56.66;98372.88;5092924;28;19932;-74
2023/07/09 05:12:13;;;;;;;;;;;;;;;25.85;56.79;98379.13;5082949;28;19924;-74
2023/07/09 05:14:40;;;;;;;;;;;;;;;25.59;57.77;98374.94;5092769;28;19925;-74
2023/07/09 05:17:07;;;;;;;;;;;;;;;25.34;58.60;98387.13;5083178;28;19925;-74
2023/07/09 05:19:34;;;;;;;;;;;;;;;25.44;58.34;98397.53;5083168;28;19925;-74
2023/07/09 05:22:01;;;;;;;;;;;;;;;25.66;57.70;98386.06;5092443;28;19925;-74
2023/07/09 05:24:27;;;;;;;;;;;;;;;25.80;57.31;98388.41;5092607;28;19978;-73
2023/07/09 05:26:55;;;;;;;;;;;;;;;25.75;57.44;98388.63;5084829;28;19924;-73
2023/07/09 05:29:21;;;;;;;;;;;;;;;25.76;57.54;98379.31;5090864;28;19925;-73
2023/07/09 05:31:47;;;;;;;;;;;;;;;25.86;57.11;98388.94;5092265;28;19924;-73
2023/07/09 05:34:14;;;;;;;;;;;;;;;25.80;57.65;98401.28;5092204;28;20404;-73
2023/07/09 05:36:41;;;;;;;;;;;;;;;25.86;57.67;98391.69;5086693;28;19964;-73
2023/07/09 05:39:08;;;;;;;;;;;;;;;26.13;56.72;98388.06;5089069;28;19948;-73
2023/07/09 05:41:34;;;;;;;;;;;;;;;26.38;56.19;98385.97;5082695;28;20015;-73
2023/07/09 05:44:00;;;;;;;;;;;;;;;26.34;56.38;98383.13;5092242;28;19960;-74
2023/07/09 05:46:27;;;;;;;;;;;;;;;26.52;56.12;98394.53;5092069;28;19960;-75
2023/07/09 05:48:53;;;;;;;;;;;;;;;26.54;55.89;98400.44;5091675;28;19963;-75
2023/07/09 05:51:21;;;;;;;;;;;;;;;26.59;55.66;98400.16;5091778;28;19967;-73
2023/07/09 05:53:49;;;;;;;;;;;;;;;26.81;55.16;98397.59;5091842;28;20503;-74
2023/07/09 05:56:15;;;;;;;;;;;;;;;26.68;55.19;98398.81;5091656;28;19940;-74
2023/07/09 05:58:41;;;;;;;;;;;;;;;26.58;55.63;98395.84;5091777;28;20102;-74
2023/07/09 06:01:08;;;;;;;;;;;;;;;26.62;55.61;98399.44;5091830;28;19970;-74
2023/07/09 06:03:34;;;;;;;;;;;;;;;26.59;54.99;98400.97;5081936;28;19928;-74
2023/07/09 06:06:00;;;;;;;;;;;;;;;26.90;54.75;98405.59;5091597;28;19920;-74
2023/07/09 06:08:27;;;;;;;;;;;;;;;26.76;54.93;98408.00;5091564;28;19924;-74
2023/07/09 06:10:56;;;;;;;;;;;;;;;26.46;54.85;98399.47;5091436;28;19924;-74
2023/07/09 06:13:22;;;;;;;;;;;;;;;26.43;55.17;98399.41;5091534;28;19947;-74
2023/07/09 06:15:49;;;;;;;;;;;;;;;26.33;54.78;98399.94;5091521;28;19931;-74
2023/07/09 06:18:15;;;;;;;;;;;;;;;25.98;54.86;98408.03;5082022;28;20306;-74
2023/07/09 06:20:42;;;;;;;;;;;;;;;25.76;55.62;98410.19;5091295;28;19925;-74
2023/07/09 06:23:09;;;;;;;;;;;;;;;25.52;56.23;98393.91;5091389;28;19935;-74
2023/07/09 06:25:38;;;;;;;;;;;;;;;25.58;56.67;98403.44;5091398;28;20362;-74
2023/07/09 06:28:06;;;;;;;;;;;;;;;25.81;56.46;98391.94;5091061;28;19980;-74
2023/07/09 06:30:32;;;;;;;;;;;;;;;26.20;55.62;98404.72;5091113;28;19971;-74
2023/07/09 06:32:59;;;;;;;;;;;;;;;26.07;55.88;98403.97;5091247;28;19936;-74
2023/07/09 06:35:25;;;;;;;;;;;;;;;25.96;56.26;98399.38;5081625;28;19952;-74
2023/07/09 06:37:51;;;;;;;;;;;;;;;26.08;56.21;98402.03;5081832;28;19936;-74
2023/07/09 06:40:18;;;;;;;;;;;;;;;26.02;56.07;98415.19;5091452;28;19931;-74
2023/07/09 06:42:44;;;;;;;;;;;;;;;26.04;56.14;98414.81;5084972;28;19952;-74
2023/07/09 06:45:12;;;;;;;;;;;;;;;25.88;56.61;98417.53;5100902;28;20027;-74
2023/07/09 06:47:38;;;;;;;;;;;;;;;25.78;56.54;98423.50;5081791;28;20022;-74
2023/07/09 06:50:05;;;;;;;;;;;;;;;26.10;56.14;98422.41;5091252;28;20019;-74
2023/07/09 06:52:31;;;;;;;;;;;;;;;25.81;56.22;98428.28;5089967;28;19967;-74
2023/07/09 06:54:58;;;;;;;;;;;;;;;25.58;56.77;98425.34;5091492;28;20387;-74
2023/07/09 06:57:24;;;;;;;;;;;;;;;25.43;57.94;98420.59;5083625;28;19931;-74
2023/07/09 06:59:50;;;;;;;;;;;;;;;25.94;57.34;98423.53;5092167;28;19944;-74
2023/07/09 07:02:18;;;;;;;;;;;;;;;26.08;56.92;98419.25;5090711;28;19925;-74
2023/07/09 07:04:44;;;;;;;;;;;;;;;26.45;56.36;98419.81;5091058;28;19925;-75
2023/07/09 07:07:11;;;;;;;;;;;;;;;26.54;55.99;98417.69;5091070;28;19931;-75
2023/07/09 07:09:37;;;;;;;;;;;;;;;26.21;56.55;98422.75;5091341;28;19963;-75
2023/07/09 07:12:04;;;;;;;;;;;;;;;26.29;56.72;98413.53;5081776;28;19925;-75
2023/07/09 07:14:31;;;;;;;;;;;;;;;26.56;56.39;98409.88;5090409;28;19952;-74
2023/07/09 07:16:57;;;;;;;;;;;;;;;26.30;56.89;98415.13;5090747;28;19924;-73
2023/07/09 07:19:25;;;;;;;;;;;;;;;26.08;57.66;98410.25;5090237;28;19988;-74
2023/07/09 07:21:52;;;;;;;;;;;;;;;26.06;58.67;98415.25;5090134;28;19952;-74
2023/07/09 07:24:18;;;;;;;;;;;;;;;26.37;58.07;98411.78;5080733;28;19970;-74
2023/07/09 07:26:45;;;;;;;;;;;;;;;26.57;57.66;98408.75;5090211;28;19924;-74
2023/07/09 07:29:11;;;;;;;;;;;;;;;26.39;58.46;98407.53;5090233;28;19947;-74
2023/07/09 07:31:37;;;;;;;;;;;;;;;26.25;58.99;98407.16;5090310;28;19964;-74
2023/07/09 07:34:04;;;;;;;;;;;;;;;26.78;58.00;98403.75;5090413;28;19991;-75
2023/07/09 07:36:31;;;;;;;;;;;;;;;26.85;57.99;98405.09;5090472;28;19963;-75
2023/07/09 07:38:58;;;;;;;;;;;;;;;26.72;57.70;98405.19;5082079;28;19984;-75
2023/07/09 07:41:24;;;;;;;;;;;;;;;26.47;58.45;98406.53;5089173;28;19925;-74
2023/07/09 07:43:50;;;;;;;;;;;;;;;26.47;58.98;98403.81;5090477;28;19963;-74
2023/07/09 07:46:17;;;;;;;;;;;;;;;26.53;58.75;98404.31;5080658;28;19924;-75
2023/07/09 07:48:43;;;;;;;;;;;;;;;26.52;59.03;98400.78;5090038;28;19924;-75
2023/07/09 07:51:10;;;;;;;;;;;;;;;26.71;58.60;98403.59;5090252;28;19925;-74
2023/07/09 07:53:38;;;;;;;;;;;;;;;26.77;58.05;98398.63;5091216;28;20429;-74
2023/07/09 07:56:05;;;;;;;;;;;;;;;26.80;57.69;98398.72;5090747;28;19951;-74
2023/07/09 07:58:32;;;;;;;;;;;;;;;26.68;57.66;98392.53;5090709;28;19955;-74
2023/07/09 08:00:58;;;;;;;;;;;;;;;26.66;58.03;98409.34;5090210;28;19925;-74
2023/07/09 08:03:25;;;;;;;;;;;;;;;26.58;58.35;98399.41;5080598;28;19924;-74
2023/07/09 08:05:51;;;;;;;;;;;;;;;26.61;58.52;98397.88;5080446;28;19963;-75
2023/07/09 08:08:18;;;;;;;;;;;;;;;26.60;59.18;98399.81;5090298;28;19959;-74
2023/07/09 08:10:46;;;;;;;;;;;;;;;26.67;58.85;98402.72;5089994;28;19924;-74
2023/07/09 08:13:13;;;;;;;;;;;;;;;26.93;58.49;98393.13;5092414;28;19924;-74
2023/07/09 08:15:39;;;;;;;;;;;;;;;27.07;57.66;98396.19;5093921;28;19944;-74
2023/07/09 08:18:06;;;;;;;;;;;;;;;27.26;57.43;98387.97;5093710;28;19956;-74
2023/07/09 08:20:33;;;;;;;;;;;;;;;27.47;55.93;98385.69;5084145;28;19963;-74
2023/07/09 08:22:59;;;;;;;;;;;;;;;27.74;55.77;98387.38;5093650;28;19999;-74
2023/07/09 08:25:25;;;;;;;;;;;;;;;27.59;55.72;98388.28;5093661;28;20409;-74
2023/07/09 08:27:53;;;;;;;;;;;;;;;27.83;55.53;98381.66;5093444;28;19960;-74
2023/07/09 08:30:20;;;;;;;;;;;;;;;28.40;54.60;98383.44;5093351;28;20047;-74
2023/07/09 08:32:46;;;;;;;;;;;;;;;28.62;54.68;98385.38;5093230;28;19924;-74
2023/07/09 08:35:12;;;;;;;;;;;;;;;28.98;53.53;98383.13;5093588;28;19960;-74
2023/07/09 08:37:39;;;;;;;;;;;;;;;29.28;52.97;98384.75;5093624;28;19924;-74
2023/07/09 08:40:06;;;;;;;;;;;;;;;28.92;51.43;98380.72;5093513;28;20011;-75
2023/07/09 08:42:38;;;;;;;;;;;;;;;28.61;52.97;98378.28;5093739;28;19935;-75
2023/07/09 08:45:12;;;;;;;;;;;;;;;28.93;51.79;98373.28;5093512;28;19931;-74
2023/07/09 08:47:44;;;;;;;;;;;;;;;29.10;52.26;98377.41;5085897;28;19956;-75
2023/07/09 08:50:12;;;;;;;;;;;;;;;29.28;50.15;98381.19;5093087;28;20369;-74
2023/07/09 08:52:39;;;;;;;;;;;;;;;29.00;49.98;98380.81;5093003;28;19952;-74
2023/07/09 08:55:07;;;;;;;;;;;;;;;28.67;51.29;98385.06;5093091;28;19964;-73
2023/07/09 08:57:35;;;;;;;;;;;;;;;28.62;51.07;98384.56;5085488;28;19924;-74
2023/07/09 09:00:07;;;;;;;;;;;;;;;28.44;50.90;98376.06;5084209;28;19925;-74
2023/07/09 09:02:37;;;;;;;;;;;;;;;28.54;50.99;98382.84;5084435;28;19967;-74
2023/07/09 09:05:04;;;;;;;;;;;;;;;28.70;51.53;98381.56;5093127;28;19992;-74
2023/07/09 09:07:41;;;;;;;;;;;;;;;28.95;50.90;98376.44;5083399;28;19934;-74
2023/07/09 09:10:11;;;;;;;;;;;;;;;29.22;51.30;98366.16;5093175;28;19952;-74
2023/07/09 09:12:39;;;;;;;;;;;;;;;29.03;49.10;98375.34;5085293;28;19995;-74
2023/07/09 09:15:11;;;;;;;;;;;;;;;29.07;48.52;98378.94;5083636;28;19924;-74
2023/07/09 09:17:40;;;;;;;;;;;;;;;29.11;47.71;98376.25;5085247;28;19925;-75
2023/07/09 09:20:09;;;;;;;;;;;;;;;29.21;47.79;98373.63;5092840;28;19924;-75
2023/07/09 09:22:41;;;;;;;;;;;;;;;29.27;48.30;98374.91;5084643;28;19924;-74
2023/07/09 09:25:16;;;;;;;;;;;;;;;29.39;49.03;98377.41;5092018;28;19971;-74
2023/07/09 09:27:43;;;;;;;;;;;;;;;29.92;48.48;98374.47;5097799;28;20005;-74
2023/07/09 09:30:11;;;;;;;;;;;;;;;29.79;47.26;98375.88;5089285;28;19935;-74
2023/07/09 09:32:42;;;;;;;;;;;;;;;29.63;47.57;98378.84;5092047;28;19935;-75
2023/07/09 09:35:12;;;;;;;;;;;;;;;29.95;48.17;98368.19;5092144;28;19962;-74
2023/07/09 09:37:39;;;;;;;;;;;;;;;29.93;47.83;98365.81;5082752;28;19979;-74
2023/07/09 09:40:09;;;;;;;;;;;;;;;30.08;46.73;98363.19;5082700;28;19925;-74
2023/07/09 09:42:35;;;;;;;;;;;;;;;30.15;47.10;98364.03;5084318;28;19995;-75
2023/07/09 09:45:02;;;;;;;;;;;;;;;30.22;46.49;98368.81;5092146;28;19962;-75
2023/07/09 09:47:28;;;;;;;;;;;;;;;30.16;45.76;98365.63;5092272;28;19929;-75
2023/07/09 09:49:56;;;;;;;;;;;;;;;30.08;46.68;98361.25;5086933;28;20015;-76
2023/07/09 09:52:27;;;;;;;;;;;;;;;30.57;46.67;98365.56;5090522;28;19992;-76
2023/07/09 09:54:56;;;;;;;;;;;;;;;30.47;44.07;98372.59;5091883;28;19929;-75
2023/07/09 09:57:23;;;;;;;;;;;;;;;30.32;42.06;98374.44;5092336;28;19924;-76
2023/07/09 09:59:50;;;;;;;;;;;;;;;30.26;42.41;98372.41;5085179;28;19924;-76
2023/07/09 10:02:18;;;;;;;;;;;;;;;30.19;42.09;98377.84;5089959;28;19955;-74
2023/07/09 10:04:45;;;;;;;;;;;;;;;30.19;41.81;98364.88;5091941;28;19924;-74
2023/07/09 10:07:17;;;;;;;;;;;;;;;30.27;43.47;98363.75;5091786;28;19924;-74
2023/07/09 10:09:47;;;;;;;;;;;;;;;30.37;42.98;98365.78;5091754;28;19925;-73
2023/07/09 10:12:17;;;;;;;;;;;;;;;30.44;42.34;98363.13;5082203;28;20015;-74
2023/07/09 10:14:48;;;;;;;;;;;;;;;30.56;42.45;98359.25;5091870;28;19924;-74
2023/07/09 10:17:19;;;;;;;;;;;;;;;30.58;41.26;98361.66;5082038;28;19925;-73
2023/07/09 10:19:49;;;;;;;;;;;;;;;30.67;41.49;98354.59;5091490;28;19959;-72
2023/07/09 10:22:22;;;;;;;;;;;;;;;30.73;41.33;98360.56;5091688;28;19959;-72
2023/07/09 10:24:52;;;;;;;;;;;;;;;30.76;41.02;98357.03;5091709;28;19924;-71
2023/07/09 10:27:21;;;;;;;;;;;;;;;30.73;42.73;98358.56;5091082;28;19960;-73
2023/07/09 10:29:55;;;;;;;;;;;;;;;30.86;39.80;98350.75;5091445;28;19987;-73
2023/07/09 10:32:30;;;;;;;;;;;;;;;30.92;41.76;98354.75;5091629;28;19924;-74
2023/07/09 10:35:01;;;;;;;;;;;;;;;31.03;41.23;98339.88;5091054;28;20001;-73
2023/07/09 10:37:41;;;;;;;;;;;;;;;31.15;41.84;98338.72;5090703;28;20008;-74
2023/07/09 10:40:10;;;;;;;;;;;;;;;31.16;42.37;98342.28;5090936;28;20010;-73
2023/07/09 10:42:42;;;;;;;;;;;;;;;31.19;42.24;98333.22;5083133;28;19925;-72
2023/07/09 10:45:10;;;;;;;;;;;;;;;31.38;40.21;98335.66;5081500;28;19951;-75
2023/07/09 10:47:39;;;;;;;;;;;;;;;31.46;41.75;98340.00;5081919;28;19952;-74
2023/07/09 10:50:08;;;;;;;;;;;;;;;31.52;41.26;98338.47;5085945;28;19924;-74
2023/07/09 10:52:38;;;;;;;;;;;;;;;31.63;41.30;98333.75;5083189;28;19996;-74
2023/07/09 10:55:06;;;;;;;;;;;;;;;31.58;41.29;98331.38;5091000;28;19930;-73
2023/07/09 10:57:42;;;;;;;;;;;;;;;31.68;41.18;98340.88;5091916;28;19935;-72
2023/07/09 11:00:12;;;;;;;;;;;;;;;31.77;40.58;98321.97;5091258;28;19975;-71
2023/07/09 11:02:39;;;;;;;;;;;;;;;31.72;38.02;98331.44;5091449;28;19946;-71
2023/07/09 11:05:07;;;;;;;;;;;;;;;31.64;39.60;98327.06;5091092;28;19972;-72
2023/07/09 11:07:34;;;;;;;;;;;;;;;31.75;39.67;98322.38;5083674;28;19975;-71
2023/07/09 11:10:05;;;;;;;;;;;;;;;31.77;40.18;98328.28;5091375;28;19924;-72
2023/07/09 11:12:34;;;;;;;;;;;;;;;31.72;40.48;98336.16;5090760;28;19924;-72
2023/07/09 11:15:02;;;;;;;;;;;;;;;31.92;40.33;98324.34;5090742;28;19925;-72
2023/07/09 11:17:29;;;;;;;;;;;;;;;31.77;38.83;98322.75;5080946;28;19980;-72
2023/07/09 11:19:57;;;;;;;;;;;;;;;31.64;40.11;98332.59;5090699;28;19956;-71
2023/07/09 11:22:24;;;;;;;;;;;;;;;31.63;38.46;98321.94;5090852;28;19960;-74
2023/07/09 11:24:51;;;;;;;;;;;;;;;31.73;38.91;98310.91;5091170;28;20029;-72
2023/07/09 11:27:21;;;;;;;;;;;;;;;31.74;38.29;98318.00;5081591;28;19924;-72
2023/07/09 11:29:48;;;;;;;;;;;;;;;31.73;37.27;98310.91;5091415;28;19956;-71
2023/07/09 11:32:19;;;;;;;;;;;;;;;31.82;38.15;98307.75;5091426;28;19925;-71
2023/07/09 11:34:47;;;;;;;;;;;;;;;31.89;36.91;98311.31;5090798;28;19951;-72
2023/07/09 11:37:14;;;;;;;;;;;;;;;31.92;36.80;98309.72;5090431;28;19955;-73
2023/07/09 11:39:45;;;;;;;;;;;;;;;31.95;37.45;98311.69;5090774;28;19931;-73
2023/07/09 11:42:26;;;;;;;;;;;;;;;32.03;36.92;98308.56;5081134;28;19932;-74
2023/07/09 11:44:55;;;;;;;;;;;;;;;32.03;35.95;98314.09;5090892;28;19924;-73
2023/07/09 11:47:23;;;;;;;;;;;;;;;31.91;36.16;98305.38;5082460;28;19984;-73
2023/07/09 11:49:52;;;;;;;;;;;;;;;31.86;37.61;98308.53;5094489;28;19928;-73
2023/07/09 11:52:22;;;;;;;;;;;;;;;31.98;37.95;98305.38;5094612;28;19936;-74
2023/07/09 11:54:51;;;;;;;;;;;;;;;32.22;36.30;98303.84;5087654;28;19988;-74
2023/07/09 11:57:18;;;;;;;;;;;;;;;32.19;35.67;98305.41;5092265;28;19924;-74
2023/07/09 11:59:46;;;;;;;;;;;;;;;32.07;37.20;98298.31;5085365;28;19954;-74
2023/07/09 12:02:16;;;;;;;;;;;;;;;32.38;34.65;98287.63;5094863;28;20436;-76
2023/07/09 12:04:42;;;;;;;;;;;;;;;32.29;34.63;98298.28;5094555;28;19924;-73
2023/07/09 12:07:14;;;;;;;;;;;;;;;32.25;34.89;98290.00;5094552;28;19924;-75
2023/07/09 12:09:42;;;;;;;;;;;;;;;32.26;34.92;98276.97;5094582;28;19924;-72
2023/07/09 12:12:17;;;;;;;;;;;;;;;32.32;34.79;98280.91;5094277;28;19983;-75
2023/07/09 12:14:43;;;;;;;;;;;;;;;32.48;34.95;98278.50;5094550;28;19928;-75
2023/07/09 12:17:11;;;;;;;;;;;;;;;32.58;34.26;98284.06;5094314;28;19970;-73
2023/07/09 12:19:39;;;;;;;;;;;;;;;32.48;34.56;98272.97;5084534;28;19925;-74
2023/07/09 12:22:07;;;;;;;;;;;;;;;32.55;34.42;98278.50;5094129;28;19994;-72
2023/07/09 12:24:37;;;;;;;;;;;;;;;32.64;35.36;98273.38;5093997;28;19986;-73
2023/07/09 12:27:05;;;;;;;;;;;;;;;32.68;35.16;98276.91;5094142;28;19939;-73
2023/07/09 12:29:35;;;;;;;;;;;;;;;32.64;34.99;98269.81;5093992;28;19963;-73
2023/07/09 12:32:07;;;;;;;;;;;;;;;32.68;34.66;98263.09;5094495;28;19967;-73
2023/07/09 12:34:34;;;;;;;;;;;;;;;32.80;34.21;98262.66;5092900;28;19932;-75
2023/07/09 12:37:01;;;;;;;;;;;;;;;32.70;34.42;98254.38;5094357;28;19984;-74
2023/07/09 12:39:29;;;;;;;;;;;;;;;32.72;33.84;98252.78;5084264;28;19951;-74
2023/07/09 12:41:57;;;;;;;;;;;;;;;32.60;34.21;98250.47;5093795;28;20002;-74
2023/07/09 12:44:24;;;;;;;;;;;;;;;32.81;34.50;98247.59;5093722;28;19924;-74
2023/07/09 12:46:53;;;;;;;;;;;;;;;32.77;34.39;98252.38;5093678;28;19935;-75
2023/07/09 12:49:22;;;;;;;;;;;;;;;32.71;34.73;98242.94;5093416;28;19924;-74
2023/07/09 12:51:50;;;;;;;;;;;;;;;32.38;35.33;98243.38;5093511;28;19924;-74